Aviation Digital Data Service (ADDS)

Output produced by METARs form (0819 UTC 23 September 2014)
found at http://aviationweather.gov/adds/metars/
 
KCON 230522Z 2306/2406 29008KT P6SM SCT050